Time;durP1;ratioP1;P1;durP2;ratioP2;P2;SDS_P1;SDS_P2;PMS_P1;PMS_P2;Temp;Humidity;BMP_temperature;BMP_pressure;BME280_temperature;BME280_humidity;BME280_pressure;Samples;Min_cycle;Max_cycle;Signal;HPM_P1;HPM_P2
2023/08/06 00:00:28;;;;;;;4.10;3.70;;;;;;;;;;5018013;28;20189;-51
2023/08/06 00:02:54;;;;;;;3.73;3.43;;;;;;;;;;5027160;28;20625;-51
2023/08/06 00:05:21;;;;;;;3.57;3.27;;;;;;;;;;5018688;28;20256;-51
2023/08/06 00:07:47;;;;;;;4.60;3.20;;;;;;;;;;5017060;28;20292;-51
2023/08/06 00:10:13;;;;;;;4.73;3.27;;;;;;;;;;5020693;28;20186;-50
2023/08/06 00:12:40;;;;;;;3.53;3.23;;;;;;;;;;5022392;28;20776;-50
2023/08/06 00:15:06;;;;;;;3.70;3.40;;;;;;;;;;5025588;28;20737;-50
2023/08/06 00:17:32;;;;;;;5.10;3.80;;;;;;;;;;5021143;28;20532;-50
2023/08/06 00:20:04;;;;;;;5.43;3.70;;;;;;;;;;5021644;28;20565;-51
2023/08/06 00:22:30;;;;;;;3.70;3.40;;;;;;;;;;5020353;28;20318;-51
2023/08/06 00:24:57;;;;;;;3.73;3.43;;;;;;;;;;5021178;28;20265;-51
2023/08/06 00:27:23;;;;;;;4.37;3.60;;;;;;;;;;5024462;28;20558;-51
2023/08/06 00:29:49;;;;;;;3.90;3.33;;;;;;;;;;5020854;28;20189;-51
2023/08/06 00:32:16;;;;;;;3.47;3.17;;;;;;;;;;5025823;28;20280;-50
2023/08/06 00:34:42;;;;;;;4.07;3.77;;;;;;;;;;5019006;28;20209;-51
2023/08/06 00:37:08;;;;;;;3.97;3.50;;;;;;;;;;5015246;28;20230;-51
2023/08/06 00:39:34;;;;;;;4.37;3.30;;;;;;;;;;5014990;28;20284;-51
2023/08/06 00:42:01;;;;;;;3.70;3.30;;;;;;;;;;5022520;28;20181;-51
2023/08/06 00:44:27;;;;;;;3.53;3.20;;;;;;;;;;5026270;28;20218;-50
2023/08/06 00:46:53;;;;;;;3.70;3.40;;;;;;;;;;5020336;28;20649;-51
2023/08/06 00:49:20;;;;;;;3.70;3.40;;;;;;;;;;5015918;28;20194;-51
2023/08/06 00:51:47;;;;;;;3.13;2.93;;;;;;;;;;5015259;28;20714;-51
2023/08/06 00:54:13;;;;;;;3.67;3.33;;;;;;;;;;5018240;28;20570;-51
2023/08/06 00:56:41;;;;;;;4.40;3.17;;;;;;;;;;5023593;28;20288;-51
2023/08/06 00:59:07;;;;;;;3.10;2.90;;;;;;;;;;5020220;28;20194;-52
2023/08/06 01:01:33;;;;;;;4.30;3.23;;;;;;;;;;5020334;28;20232;-50
2023/08/06 01:04:02;;;;;;;3.27;2.97;;;;;;;;;;5021007;28;20288;-50
2023/08/06 01:06:38;;;;;;;3.90;3.50;;;;;;;;;;5018049;28;20199;-50
2023/08/06 01:09:11;;;;;;;5.30;3.57;;;;;;;;;;5019903;28;20196;-50
2023/08/06 01:12:04;;;;;;;3.80;2.90;;;;;;;;;;5023939;28;20941;-51
2023/08/06 01:14:46;;;;;;;3.10;2.90;;;;;;;;;;5004551;28;20255;-50
2023/08/06 01:17:13;;;;;;;3.13;2.90;;;;;;;;;;5022635;28;20660;-51
2023/08/06 01:19:39;;;;;;;4.00;3.50;;;;;;;;;;5019334;28;20268;-51
2023/08/06 01:22:05;;;;;;;3.37;3.07;;;;;;;;;;5017279;28;20642;-50
2023/08/06 01:24:31;;;;;;;4.70;3.20;;;;;;;;;;5019931;28;20208;-54
2023/08/06 01:27:03;;;;;;;3.50;3.20;;;;;;;;;;5020273;28;20217;-53
2023/08/06 01:29:31;;;;;;;4.30;3.10;;;;;;;;;;5021457;28;20186;-54
2023/08/06 01:31:58;;;;;;;3.17;2.87;;;;;;;;;;5020627;28;20222;-54
2023/08/06 01:34:26;;;;;;;5.13;3.50;;;;;;;;;;5013387;28;20529;-54
2023/08/06 01:36:52;;;;;;;3.43;2.90;;;;;;;;;;5018281;28;20284;-54
2023/08/06 01:39:21;;;;;;;3.70;3.40;;;;;;;;;;5021491;28;20190;-54
2023/08/06 01:41:48;;;;;;;4.53;2.93;;;;;;;;;;5025102;28;21367;-54
2023/08/06 01:44:14;;;;;;;3.40;3.10;;;;;;;;;;5022721;28;20186;-54
2023/08/06 01:46:40;;;;;;;3.50;3.20;;;;;;;;;;5023049;28;20193;-54
2023/08/06 01:49:06;;;;;;;3.73;3.13;;;;;;;;;;5016788;28;20194;-54
2023/08/06 01:51:32;;;;;;;4.70;3.30;;;;;;;;;;5025012;28;20292;-54
2023/08/06 01:53:58;;;;;;;4.83;3.23;;;;;;;;;;5024273;28;20735;-54
2023/08/06 01:56:24;;;;;;;3.70;3.40;;;;;;;;;;5028711;28;20231;-53
2023/08/06 01:58:50;;;;;;;4.33;2.90;;;;;;;;;;5023777;28;20728;-54
2023/08/06 02:01:16;;;;;;;3.50;3.20;;;;;;;;;;5023309;28;20190;-54
2023/08/06 02:03:42;;;;;;;3.90;3.53;;;;;;;;;;5020746;28;20260;-54
2023/08/06 02:06:08;;;;;;;2.93;2.73;;;;;;;;;;5019383;28;20198;-54
2023/08/06 02:08:34;;;;;;;3.77;3.47;;;;;;;;;;5020909;28;20208;-54
2023/08/06 02:11:02;;;;;;;2.90;2.70;;;;;;;;;;5025674;28;20223;-54
2023/08/06 02:13:28;;;;;;;5.07;3.40;;;;;;;;;;5026768;28;20693;-54
2023/08/06 02:15:54;;;;;;;4.00;2.73;;;;;;;;;;5007258;28;20668;-55
2023/08/06 02:18:20;;;;;;;3.63;3.10;;;;;;;;;;5025885;28;20224;-54
2023/08/06 02:20:56;;;;;;;3.17;2.97;;;;;;;;;;5022898;28;20194;-54
2023/08/06 02:23:22;;;;;;;3.30;3.00;;;;;;;;;;5023156;28;20570;-54
2023/08/06 02:25:48;;;;;;;3.77;3.43;;;;;;;;;;5022256;28;20222;-54
2023/08/06 02:28:14;;;;;;;4.77;3.83;;;;;;;;;;5026783;28;20194;-55
2023/08/06 02:30:40;;;;;;;3.43;3.13;;;;;;;;;;5024006;28;20226;-54
2023/08/06 02:33:07;;;;;;;3.53;2.77;;;;;;;;;;5026798;28;20267;-52
2023/08/06 02:35:33;;;;;;;5.30;3.03;;;;;;;;;;5023025;28;20268;-53
2023/08/06 02:37:59;;;;;;;3.53;2.80;;;;;;;;;;5024235;28;21755;-53
2023/08/06 02:40:25;;;;;;;3.07;2.73;;;;;;;;;;5024269;28;20208;-53
2023/08/06 02:42:51;;;;;;;3.20;3.00;;;;;;;;;;5027297;28;20186;-53
2023/08/06 02:45:17;;;;;;;3.30;2.80;;;;;;;;;;5024296;28;20189;-53
2023/08/06 02:47:43;;;;;;;3.77;3.33;;;;;;;;;;5024002;28;20641;-53
2023/08/06 02:50:09;;;;;;;3.70;3.40;;;;;;;;;;5021944;28;20186;-53
2023/08/06 02:52:38;;;;;;;3.20;2.90;;;;;;;;;;5024975;28;20201;-53
2023/08/06 02:55:04;;;;;;;3.10;2.80;;;;;;;;;;5016872;28;20663;-53
2023/08/06 02:57:30;;;;;;;5.10;2.73;;;;;;;;;;5019346;28;20201;-53
2023/08/06 02:59:56;;;;;;;3.50;3.20;;;;;;;;;;5023852;28;20186;-54
2023/08/06 03:02:22;;;;;;;3.23;2.83;;;;;;;;;;5021640;28;20197;-53
2023/08/06 03:04:48;;;;;;;3.10;2.80;;;;;;;;;;5024476;28;20599;-53
2023/08/06 03:07:14;;;;;;;3.60;3.30;;;;;;;;;;5013957;28;20563;-54
2023/08/06 03:09:40;;;;;;;4.13;3.03;;;;;;;;;;5022985;28;20197;-53
2023/08/06 03:12:07;;;;;;;3.50;3.20;;;;;;;;;;5029145;28;20186;-54
2023/08/06 03:14:33;;;;;;;2.80;2.60;;;;;;;;;;5023860;28;20245;-53
2023/08/06 03:16:59;;;;;;;3.70;3.40;;;;;;;;;;5022998;28;20182;-54
2023/08/06 03:19:25;;;;;;;3.77;2.87;;;;;;;;;;5020881;28;20682;-53
2023/08/06 03:21:51;;;;;;;2.97;2.77;;;;;;;;;;5021743;28;20519;-53
2023/08/06 03:24:17;;;;;;;4.97;2.70;;;;;;;;;;5019717;28;20201;-53
2023/08/06 03:26:43;;;;;;;3.17;2.87;;;;;;;;;;5024357;28;21986;-53
2023/08/06 03:29:09;;;;;;;3.27;2.80;;;;;;;;;;5023944;28;20198;-53
2023/08/06 03:31:35;;;;;;;3.20;3.00;;;;;;;;;;5022526;28;20213;-53
2023/08/06 03:34:01;;;;;;;3.50;3.20;;;;;;;;;;5022185;28;20206;-53
2023/08/06 03:36:27;;;;;;;4.57;3.00;;;;;;;;;;5022324;28;20344;-53
2023/08/06 03:38:53;;;;;;;2.93;2.63;;;;;;;;;;5027020;28;20193;-53
2023/08/06 03:41:19;;;;;;;3.67;2.70;;;;;;;;;;5008054;28;20190;-53
2023/08/06 03:43:45;;;;;;;3.40;2.80;;;;;;;;;;5025506;28;20198;-53
2023/08/06 03:46:11;;;;;;;3.40;3.00;;;;;;;;;;5019892;28;22099;-53
2023/08/06 03:48:37;;;;;;;3.27;2.97;;;;;;;;;;5022263;28;20200;-53
2023/08/06 03:51:03;;;;;;;5.67;2.90;;;;;;;;;;5022632;28;20244;-53
2023/08/06 03:53:29;;;;;;;3.13;2.70;;;;;;;;;;5018587;28;20220;-53
2023/08/06 03:55:59;;;;;;;3.80;3.20;;;;;;;;;;5021461;28;20197;-52
2023/08/06 03:58:25;;;;;;;3.03;2.83;;;;;;;;;;5024578;28;20760;-52
2023/08/06 04:00:58;;;;;;;3.20;3.00;;;;;;;;;;5022115;28;20653;-52
2023/08/06 04:03:24;;;;;;;3.37;2.90;;;;;;;;;;5019341;28;20194;-53
2023/08/06 04:05:50;;;;;;;2.80;2.60;;;;;;;;;;5020208;28;20308;-52
2023/08/06 04:08:16;;;;;;;4.20;2.93;;;;;;;;;;5019191;28;20703;-53
2023/08/06 04:10:42;;;;;;;3.10;2.83;;;;;;;;;;5018681;28;20194;-53
2023/08/06 04:13:08;;;;;;;2.90;2.70;;;;;;;;;;5020926;28;20335;-53
2023/08/06 04:15:34;;;;;;;3.40;3.10;;;;;;;;;;5021859;28;20194;-53
2023/08/06 04:18:00;;;;;;;5.43;3.20;;;;;;;;;;5023602;28;20186;-53
2023/08/06 04:20:27;;;;;;;3.33;3.03;;;;;;;;;;5025886;28;20252;-54
2023/08/06 04:22:55;;;;;;;2.90;2.70;;;;;;;;;;5022852;28;20208;-53
2023/08/06 04:25:21;;;;;;;3.63;3.33;;;;;;;;;;5020637;28;20186;-54
2023/08/06 04:27:48;;;;;;;3.27;2.57;;;;;;;;;;5024721;28;20851;-53
2023/08/06 04:30:14;;;;;;;3.47;2.80;;;;;;;;;;5027931;28;20205;-53
2023/08/06 04:32:40;;;;;;;3.00;2.67;;;;;;;;;;5015626;28;20539;-53
2023/08/06 04:35:06;;;;;;;5.10;2.63;;;;;;;;;;5022189;28;20581;-52
2023/08/06 04:37:33;;;;;;;3.33;2.60;;;;;;;;;;5021352;28;20199;-53
2023/08/06 04:39:59;;;;;;;3.30;3.00;;;;;;;;;;5021710;28;20240;-52
2023/08/06 04:42:25;;;;;;;2.97;2.77;;;;;;;;;;5026043;28;20543;-52
2023/08/06 04:44:51;;;;;;;3.30;3.00;;;;;;;;;;5012550;28;20722;-53
2023/08/06 04:47:17;;;;;;;3.00;2.80;;;;;;;;;;5013637;28;20190;-52
2023/08/06 04:49:43;;;;;;;2.40;2.20;;;;;;;;;;5024943;28;20217;-52
2023/08/06 04:52:09;;;;;;;2.77;2.57;;;;;;;;;;5024846;28;20198;-52
2023/08/06 04:54:35;;;;;;;5.00;2.97;;;;;;;;;;5021449;28;20576;-52
2023/08/06 04:57:01;;;;;;;2.70;2.50;;;;;;;;;;5026412;28;20203;-52
2023/08/06 04:59:27;;;;;;;3.13;2.90;;;;;;;;;;5020484;28;20220;-52
2023/08/06 05:01:53;;;;;;;2.67;2.47;;;;;;;;;;5018094;28;20213;-52
2023/08/06 05:04:19;;;;;;;3.17;2.67;;;;;;;;;;5021957;28;20216;-52
2023/08/06 05:06:45;;;;;;;3.07;2.57;;;;;;;;;;5021654;28;20251;-52
2023/08/06 05:09:11;;;;;;;2.70;2.50;;;;;;;;;;5021854;28;20217;-52
2023/08/06 05:11:37;;;;;;;2.80;2.40;;;;;;;;;;5021109;28;20672;-53
2023/08/06 05:14:03;;;;;;;2.67;2.40;;;;;;;;;;5018482;28;20516;-52
2023/08/06 05:16:29;;;;;;;2.33;2.13;;;;;;;;;;5021941;28;20201;-52
2023/08/06 05:18:55;;;;;;;2.73;2.53;;;;;;;;;;5019889;28;20221;-53
2023/08/06 05:21:22;;;;;;;2.97;2.67;;;;;;;;;;5007434;28;20236;-52
2023/08/06 05:23:48;;;;;;;2.47;2.27;;;;;;;;;;5019666;28;20197;-53
2023/08/06 05:26:16;;;;;;;4.23;2.87;;;;;;;;;;5026937;28;20253;-52
2023/08/06 05:28:42;;;;;;;4.13;3.60;;;;;;;;;;5028042;28;20227;-52
2023/08/06 05:31:08;;;;;;;2.90;2.70;;;;;;;;;;5026972;28;20767;-53
2023/08/06 05:33:34;;;;;;;3.33;3.03;;;;;;;;;;5028010;28;20568;-52
2023/08/06 05:36:00;;;;;;;3.60;2.80;;;;;;;;;;5023893;28;20276;-53
2023/08/06 05:38:27;;;;;;;4.77;2.83;;;;;;;;;;5007052;28;20200;-52
2023/08/06 05:40:53;;;;;;;3.27;2.40;;;;;;;;;;5027011;28;20209;-52
2023/08/06 05:43:19;;;;;;;2.77;2.57;;;;;;;;;;5024064;28;20205;-52
2023/08/06 05:45:46;;;;;;;3.00;2.80;;;;;;;;;;5027782;28;20202;-52
2023/08/06 05:48:12;;;;;;;2.80;2.60;;;;;;;;;;5029219;28;20466;-52
2023/08/06 05:50:38;;;;;;;2.43;2.23;;;;;;;;;;5025028;28;20205;-52
2023/08/06 05:53:04;;;;;;;3.73;2.70;;;;;;;;;;5025397;28;20190;-53
2023/08/06 05:55:32;;;;;;;3.07;2.87;;;;;;;;;;5026839;28;20216;-53
2023/08/06 05:57:58;;;;;;;2.80;2.60;;;;;;;;;;5026625;28;20279;-54
2023/08/06 06:00:24;;;;;;;2.87;2.67;;;;;;;;;;5026208;28;20534;-53
2023/08/06 06:02:50;;;;;;;4.03;2.83;;;;;;;;;;5020952;28;20182;-53
2023/08/06 06:05:16;;;;;;;2.67;2.47;;;;;;;;;;5006761;28;20252;-51
2023/08/06 06:07:43;;;;;;;3.43;3.07;;;;;;;;;;5005714;28;20197;-51
2023/08/06 06:10:09;;;;;;;2.70;2.47;;;;;;;;;;5021218;28;20286;-51
2023/08/06 06:12:36;;;;;;;3.00;2.80;;;;;;;;;;5028257;28;20205;-51
2023/08/06 06:15:03;;;;;;;3.40;2.70;;;;;;;;;;5018702;28;20210;-51
2023/08/06 06:17:29;;;;;;;3.87;3.20;;;;;;;;;;5018057;28;20737;-51
2023/08/06 06:19:56;;;;;;;3.10;2.87;;;;;;;;;;5020512;28;20231;-51
2023/08/06 06:22:23;;;;;;;3.03;2.80;;;;;;;;;;5003549;28;20510;-51
2023/08/06 06:24:49;;;;;;;2.70;2.50;;;;;;;;;;5024712;28;20206;-52
2023/08/06 06:27:16;;;;;;;2.87;2.57;;;;;;;;;;5026620;28;20552;-51
2023/08/06 06:29:42;;;;;;;3.37;3.07;;;;;;;;;;5023825;28;20212;-52
2023/08/06 06:32:08;;;;;;;4.17;3.20;;;;;;;;;;5009869;28;20716;-51
2023/08/06 06:34:35;;;;;;;2.60;2.33;;;;;;;;;;5018770;28;20218;-51
2023/08/06 06:37:02;;;;;;;3.50;2.80;;;;;;;;;;5020227;28;20212;-50
2023/08/06 06:39:28;;;;;;;4.23;2.80;;;;;;;;;;5026682;28;21014;-50
2023/08/06 06:41:55;;;;;;;3.17;2.87;;;;;;;;;;5020880;28;20196;-51
2023/08/06 06:44:21;;;;;;;3.47;2.80;;;;;;;;;;5019238;28;20201;-50
2023/08/06 06:46:48;;;;;;;5.63;3.10;;;;;;;;;;5024965;28;20650;-51
2023/08/06 06:49:14;;;;;;;3.40;3.03;;;;;;;;;;5015299;28;20224;-52
2023/08/06 06:51:40;;;;;;;5.83;3.40;;;;;;;;;;5022157;28;20189;-51
2023/08/06 06:54:07;;;;;;;3.90;2.67;;;;;;;;;;5021200;28;20256;-51
2023/08/06 06:56:33;;;;;;;4.37;3.07;;;;;;;;;;5006750;28;20190;-49
2023/08/06 06:58:59;;;;;;;3.63;3.00;;;;;;;;;;5020291;28;20197;-50
2023/08/06 07:01:26;;;;;;;3.53;3.23;;;;;;;;;;5017265;28;20527;-50
2023/08/06 07:03:52;;;;;;;3.80;3.00;;;;;;;;;;5025215;28;20198;-50
2023/08/06 07:06:18;;;;;;;3.13;2.90;;;;;;;;;;5018035;28;20198;-50
2023/08/06 07:08:45;;;;;;;4.57;3.03;;;;;;;;;;5025264;28;20194;-50
2023/08/06 07:11:11;;;;;;;4.20;3.50;;;;;;;;;;5020467;28;20217;-50
2023/08/06 07:13:37;;;;;;;5.90;3.00;;;;;;;;;;5018155;28;20221;-51
2023/08/06 07:16:03;;;;;;;3.17;2.97;;;;;;;;;;5019746;28;20197;-50
2023/08/06 07:18:30;;;;;;;3.70;3.33;;;;;;;;;;5021596;28;20214;-50
2023/08/06 07:20:56;;;;;;;3.90;3.20;;;;;;;;;;5018721;28;20194;-50
2023/08/06 07:23:23;;;;;;;3.17;2.93;;;;;;;;;;5020524;28;20194;-51
2023/08/06 07:25:49;;;;;;;3.80;3.30;;;;;;;;;;5017875;28;20194;-50
2023/08/06 07:28:15;;;;;;;3.13;2.90;;;;;;;;;;5021959;28;21154;-50
2023/08/06 07:30:42;;;;;;;3.50;3.23;;;;;;;;;;5016344;28;20622;-50
2023/08/06 07:33:08;;;;;;;3.13;2.80;;;;;;;;;;5016625;28;20241;-50
2023/08/06 07:35:36;;;;;;;3.83;3.43;;;;;;;;;;5011498;28;20228;-50
2023/08/06 07:38:03;;;;;;;2.93;2.73;;;;;;;;;;5013352;28;20194;-50
2023/08/06 07:40:29;;;;;;;3.90;2.90;;;;;;;;;;5023903;28;20522;-51
2023/08/06 07:42:55;;;;;;;5.40;3.47;;;;;;;;;;5010650;28;20225;-50
2023/08/06 07:45:21;;;;;;;3.03;2.83;;;;;;;;;;5017922;28;20190;-50
2023/08/06 07:47:47;;;;;;;4.23;3.17;;;;;;;;;;5018500;28;20234;-50
2023/08/06 07:50:14;;;;;;;3.50;3.20;;;;;;;;;;5019935;28;20194;-50
2023/08/06 07:52:40;;;;;;;4.37;3.30;;;;;;;;;;5016393;28;20190;-50
2023/08/06 07:55:06;;;;;;;3.50;3.20;;;;;;;;;;5018381;28;20222;-50
2023/08/06 07:57:34;;;;;;;3.07;2.73;;;;;;;;;;5018596;28;20325;-50
2023/08/06 08:00:00;;;;;;;4.37;3.10;;;;;;;;;;5019342;28;20228;-50
2023/08/06 08:02:26;;;;;;;3.50;3.20;;;;;;;;;;5016747;28;20189;-50
2023/08/06 08:04:52;;;;;;;3.60;2.93;;;;;;;;;;5019229;28;20202;-50
2023/08/06 08:07:19;;;;;;;3.17;2.90;;;;;;;;;;5021452;28;20664;-50
2023/08/06 08:09:45;;;;;;;3.13;2.83;;;;;;;;;;5017809;28;20575;-50
2023/08/06 08:12:11;;;;;;;3.07;2.77;;;;;;;;;;5018432;28;20293;-50
2023/08/06 08:14:37;;;;;;;3.40;3.00;;;;;;;;;;5016839;28;20339;-50
2023/08/06 08:17:04;;;;;;;3.33;3.00;;;;;;;;;;5017638;28;20317;-51
2023/08/06 08:19:30;;;;;;;3.80;2.77;;;;;;;;;;5026882;28;20181;-50
2023/08/06 08:21:56;;;;;;;2.90;2.57;;;;;;;;;;5022976;28;20197;-50
2023/08/06 08:24:25;;;;;;;4.10;2.77;;;;;;;;;;5014172;28;21581;-50
2023/08/06 08:26:52;;;;;;;3.30;3.00;;;;;;;;;;5015260;28;20688;-50
2023/08/06 08:29:18;;;;;;;3.60;3.30;;;;;;;;;;5018148;28;20243;-50
2023/08/06 08:31:44;;;;;;;3.60;2.97;;;;;;;;;;5016936;28;20210;-50
2023/08/06 08:34:10;;;;;;;3.63;3.13;;;;;;;;;;5019049;28;20359;-50
2023/08/06 08:36:36;;;;;;;3.37;3.00;;;;;;;;;;5019852;28;20229;-50
2023/08/06 08:39:03;;;;;;;3.80;3.20;;;;;;;;;;5017518;28;20189;-51
2023/08/06 08:41:30;;;;;;;3.40;3.10;;;;;;;;;;5017440;28;20679;-51
2023/08/06 08:43:56;;;;;;;3.50;3.20;;;;;;;;;;5013973;28;20280;-51
2023/08/06 08:46:22;;;;;;;6.07;3.50;;;;;;;;;;5017053;28;20197;-51
2023/08/06 08:48:48;;;;;;;3.57;3.27;;;;;;;;;;5020374;28;20316;-50
2023/08/06 08:51:15;;;;;;;3.60;3.10;;;;;;;;;;5019740;28;20224;-51
2023/08/06 08:53:42;;;;;;;3.50;3.20;;;;;;;;;;5012439;28;20257;-51
2023/08/06 08:56:09;;;;;;;3.97;3.57;;;;;;;;;;5018452;28;20510;-50
2023/08/06 08:58:35;;;;;;;3.50;3.20;;;;;;;;;;5017762;28;20276;-50
2023/08/06 09:01:02;;;;;;;3.70;3.20;;;;;;;;;;5013656;28;20206;-50
2023/08/06 09:03:28;;;;;;;3.53;3.23;;;;;;;;;;5017212;28;20198;-51
2023/08/06 09:05:55;;;;;;;3.50;3.20;;;;;;;;;;5018417;28;20327;-50
2023/08/06 09:08:23;;;;;;;5.43;3.07;;;;;;;;;;5022751;28;20198;-50
2023/08/06 09:10:49;;;;;;;2.90;2.63;;;;;;;;;;5016914;28;20709;-50
2023/08/06 09:13:16;;;;;;;4.17;3.70;;;;;;;;;;5017137;28;20996;-50
2023/08/06 09:15:44;;;;;;;5.63;4.40;;;;;;;;;;5017732;28;20216;-50
2023/08/06 09:18:11;;;;;;;3.73;3.43;;;;;;;;;;5015314;28;20594;-50
2023/08/06 09:20:38;;;;;;;3.57;3.27;;;;;;;;;;5013792;28;20202;-50
2023/08/06 09:23:10;;;;;;;5.03;3.50;;;;;;;;;;5023972;28;20653;-50
2023/08/06 09:25:40;;;;;;;3.30;3.10;;;;;;;;;;5021119;28;20677;-49
2023/08/06 09:28:06;;;;;;;3.37;3.10;;;;;;;;;;5016600;28;20190;-49
2023/08/06 09:30:33;;;;;;;3.13;2.93;;;;;;;;;;5021473;28;20213;-49
2023/08/06 09:32:59;;;;;;;3.57;3.10;;;;;;;;;;5018242;28;20191;-49
2023/08/06 09:35:25;;;;;;;3.33;3.03;;;;;;;;;;5018865;28;20217;-49
2023/08/06 09:37:51;;;;;;;3.23;2.93;;;;;;;;;;5018096;28;20183;-49
2023/08/06 09:40:27;;;;;;;3.10;2.90;;;;;;;;;;5011676;28;20207;-50
2023/08/06 09:42:53;;;;;;;6.00;2.87;;;;;;;;;;5021494;28;20600;-49
2023/08/06 09:45:19;;;;;;;4.17;2.90;;;;;;;;;;5017595;28;20658;-49
2023/08/06 09:47:45;;;;;;;3.20;2.90;;;;;;;;;;5018131;28;20186;-49
2023/08/06 09:50:21;;;;;;;3.77;2.97;;;;;;;;;;5021582;28;20201;-49
2023/08/06 09:52:48;;;;;;;4.30;2.93;;;;;;;;;;5017011;28;20190;-49
2023/08/06 09:55:14;;;;;;;3.23;2.70;;;;;;;;;;5020020;28;20301;-55
2023/08/06 09:57:41;;;;;;;3.40;2.87;;;;;;;;;;5014920;28;20589;-52
2023/08/06 10:00:09;;;;;;;4.57;3.13;;;;;;;;;;5013931;28;20186;-52
2023/08/06 10:02:36;;;;;;;3.10;2.73;;;;;;;;;;5017880;28;20213;-52
2023/08/06 10:05:02;;;;;;;3.23;2.93;;;;;;;;;;5019436;28;20194;-52
2023/08/06 10:07:30;;;;;;;5.27;2.90;;;;;;;;;;5016941;28;20209;-52
2023/08/06 10:09:56;;;;;;;4.47;2.70;;;;;;;;;;5019064;28;20190;-52
2023/08/06 10:12:22;;;;;;;3.33;3.03;;;;;;;;;;5022170;28;20232;-51
2023/08/06 10:14:50;;;;;;;4.57;3.10;;;;;;;;;;5018815;28;20206;-52
2023/08/06 10:17:17;;;;;;;3.30;3.00;;;;;;;;;;5023146;28;20201;-53
2023/08/06 10:19:43;;;;;;;4.03;3.33;;;;;;;;;;5021584;28;20221;-52
2023/08/06 10:22:13;;;;;;;3.93;3.50;;;;;;;;;;5020538;28;20179;-53
2023/08/06 10:25:04;;;;;;;4.63;3.97;;;;;;;;;;5019146;28;22267;-51
2023/08/06 10:27:31;;;;;;;4.07;3.77;;;;;;;;;;5023638;28;20727;-53
2023/08/06 10:30:17;;;;;;;4.47;4.17;;;;;;;;;;5019449;28;20650;-52
2023/08/06 10:32:50;;;;;;;4.80;4.20;;;;;;;;;;5021193;28;20661;-52
2023/08/06 10:35:31;;;;;;;4.73;4.23;;;;;;;;;;5006846;28;20496;-52
2023/08/06 10:38:03;;;;;;;4.43;4.00;;;;;;;;;;5021123;28;20701;-51
2023/08/06 10:40:30;;;;;;;4.17;3.60;;;;;;;;;;5027455;28;20692;-52
2023/08/06 10:42:59;;;;;;;4.00;3.70;;;;;;;;;;5021261;28;20630;-52
2023/08/06 10:45:28;;;;;;;3.30;3.00;;;;;;;;;;5020853;28;20585;-61
2023/08/06 10:47:55;;;;;;;2.93;2.63;;;;;;;;;;5027547;28;20192;-51
2023/08/06 10:50:21;;;;;;;2.40;2.20;;;;;;;;;;5026842;28;20209;-53
2023/08/06 10:52:47;;;;;;;2.20;1.90;;;;;;;;;;5023015;28;20571;-53
2023/08/06 10:55:14;;;;;;;2.20;2.00;;;;;;;;;;5026772;28;20210;-51
2023/08/06 10:57:40;;;;;;;2.07;1.80;;;;;;;;;;5023779;28;20752;-51
2023/08/06 11:00:08;;;;;;;2.00;1.73;;;;;;;;;;5020049;28;20190;-51
2023/08/06 11:02:37;;;;;;;1.60;1.50;;;;;;;;;;5023989;28;20217;-51
2023/08/06 11:05:07;;;;;;;1.63;1.53;;;;;;;;;;5025181;28;20186;-52
2023/08/06 11:07:33;;;;;;;1.47;1.37;;;;;;;;;;5013802;28;20700;-52
2023/08/06 11:10:03;;;;;;;3.03;2.00;;;;;;;;;;5024439;28;20225;-52
2023/08/06 11:12:30;;;;;;;1.63;1.53;;;;;;;;;;5020652;28;20235;-53
2023/08/06 11:14:56;;;;;;;1.50;1.40;;;;;;;;;;5020600;28;20206;-53
2023/08/06 11:17:22;;;;;;;1.90;1.77;;;;;;;;;;5021390;28;20685;-53
2023/08/06 11:19:48;;;;;;;3.13;1.90;;;;;;;;;;5021068;28;20190;-53
2023/08/06 11:22:15;;;;;;;1.70;1.60;;;;;;;;;;5025339;28;20186;-54
2023/08/06 11:24:41;;;;;;;2.23;1.80;;;;;;;;;;5013886;28;20202;-53
2023/08/06 11:27:14;;;;;;;1.80;1.70;;;;;;;;;;5023943;28;20658;-53
2023/08/06 11:29:41;;;;;;;1.93;1.73;;;;;;;;;;5019384;28;20213;-53
2023/08/06 11:32:07;;;;;;;1.57;1.47;;;;;;;;;;5022199;28;20246;-54
2023/08/06 11:34:34;;;;;;;1.50;1.40;;;;;;;;;;5021877;28;20217;-54
2023/08/06 11:37:00;;;;;;;1.60;1.50;;;;;;;;;;5022033;28;20685;-54
2023/08/06 11:39:26;;;;;;;2.30;1.50;;;;;;;;;;5027216;28;20185;-53
2023/08/06 11:41:52;;;;;;;1.40;1.30;;;;;;;;;;5018381;28;20194;-54
2023/08/06 11:44:24;;;;;;;2.03;1.60;;;;;;;;;;5018947;28;20575;-54
2023/08/06 11:46:52;;;;;;;1.30;1.20;;;;;;;;;;5019284;28;20186;-54
2023/08/06 11:49:21;;;;;;;1.60;1.50;;;;;;;;;;5026575;28;20199;-53
2023/08/06 11:51:48;;;;;;;1.57;1.47;;;;;;;;;;5017145;28;20593;-53
2023/08/06 11:54:14;;;;;;;1.50;1.40;;;;;;;;;;5015248;28;20705;-53
2023/08/06 11:56:40;;;;;;;1.60;1.50;;;;;;;;;;5025386;28;22363;-54
2023/08/06 11:59:06;;;;;;;1.67;1.57;;;;;;;;;;5020843;28;20197;-54
2023/08/06 12:01:32;;;;;;;2.03;1.50;;;;;;;;;;5014686;28;20218;-54
2023/08/06 12:04:01;;;;;;;1.10;1.10;;;;;;;;;;5016601;28;20197;-54
2023/08/06 12:06:28;;;;;;;1.30;1.20;;;;;;;;;;5024470;28;20669;-54
2023/08/06 12:08:54;;;;;;;2.27;1.50;;;;;;;;;;5016210;28;20700;-54
2023/08/06 12:11:22;;;;;;;2.07;1.40;;;;;;;;;;5014639;28;20654;-54
2023/08/06 12:13:51;;;;;;;1.50;1.40;;;;;;;;;;5017892;28;20344;-55
2023/08/06 12:16:18;;;;;;;1.87;1.60;;;;;;;;;;5014821;28;20186;-55
2023/08/06 12:18:45;;;;;;;1.63;1.50;;;;;;;;;;5019701;28;20659;-54
2023/08/06 12:21:11;;;;;;;1.70;1.60;;;;;;;;;;5016753;28;20190;-54
2023/08/06 12:23:37;;;;;;;2.27;1.40;;;;;;;;;;5018319;28;20208;-55
2023/08/06 12:26:03;;;;;;;1.50;1.40;;;;;;;;;;5020639;28;20194;-55
2023/08/06 12:28:29;;;;;;;2.20;1.50;;;;;;;;;;5025188;28;21345;-54
2023/08/06 12:30:55;;;;;;;1.53;1.30;;;;;;;;;;5024701;28;20687;-55
2023/08/06 12:33:21;;;;;;;1.67;1.53;;;;;;;;;;5020391;28;20189;-55
2023/08/06 12:35:47;;;;;;;1.80;1.70;;;;;;;;;;5016934;28;20664;-54
2023/08/06 12:38:13;;;;;;;1.60;1.50;;;;;;;;;;5020800;28;20193;-54
2023/08/06 12:40:40;;;;;;;1.90;1.80;;;;;;;;;;5025988;28;20941;-53
2023/08/06 12:43:06;;;;;;;1.90;1.80;;;;;;;;;;5020028;28;20715;-54
2023/08/06 12:45:33;;;;;;;1.80;1.70;;;;;;;;;;5020332;28;20194;-54
2023/08/06 12:47:58;;;;;;;3.27;1.90;;;;;;;;;;5023323;28;20193;-54
2023/08/06 12:50:25;;;;;;;1.90;1.70;;;;;;;;;;5023739;28;20200;-52
2023/08/06 12:52:51;;;;;;;2.23;2.03;;;;;;;;;;5023807;28;20186;-53
2023/08/06 12:55:17;;;;;;;2.20;2.00;;;;;;;;;;5023895;28;20262;-54
2023/08/06 12:57:43;;;;;;;2.30;2.20;;;;;;;;;;5021616;28;20276;-55
2023/08/06 13:00:09;;;;;;;3.37;2.53;;;;;;;;;;5017132;28;20193;-54
2023/08/06 13:02:35;;;;;;;3.37;2.23;;;;;;;;;;5021589;28;20190;-53
2023/08/06 13:05:05;;;;;;;4.57;2.60;;;;;;;;;;5020525;28;21696;-54
2023/08/06 13:07:31;;;;;;;2.27;2.10;;;;;;;;;;5027035;28;20689;-54
2023/08/06 13:09:57;;;;;;;2.57;2.37;;;;;;;;;;5014582;28;20218;-53
2023/08/06 13:12:23;;;;;;;3.57;3.00;;;;;;;;;;5021297;28;20662;-53
2023/08/06 13:14:49;;;;;;;2.83;2.57;;;;;;;;;;5021553;28;20686;-53
2023/08/06 13:17:15;;;;;;;3.10;2.80;;;;;;;;;;5023011;28;20590;-54
2023/08/06 13:19:41;;;;;;;2.60;2.40;;;;;;;;;;5025286;28;20870;-53
2023/08/06 13:22:09;;;;;;;2.63;2.43;;;;;;;;;;5020990;28;20671;-54
2023/08/06 13:24:35;;;;;;;3.13;2.43;;;;;;;;;;5018800;28;20194;-50
2023/08/06 13:27:01;;;;;;;2.83;2.40;;;;;;;;;;5019038;28;20186;-51
2023/08/06 13:29:27;;;;;;;2.90;2.67;;;;;;;;;;5004537;28;20694;-50
2023/08/06 13:31:53;;;;;;;3.00;2.80;;;;;;;;;;5026015;28;20673;-50
2023/08/06 13:34:20;;;;;;;3.07;2.77;;;;;;;;;;5017409;28;20268;-50
2023/08/06 13:36:46;;;;;;;3.10;2.80;;;;;;;;;;5018015;28;20720;-49
2023/08/06 13:39:12;;;;;;;3.00;2.70;;;;;;;;;;5015687;28;20186;-51
2023/08/06 13:41:39;;;;;;;2.70;2.50;;;;;;;;;;5019294;28;20182;-50
2023/08/06 13:44:06;;;;;;;2.90;2.70;;;;;;;;;;5021780;28;20273;-50
2023/08/06 13:46:32;;;;;;;3.17;2.93;;;;;;;;;;5027386;28;20324;-50
2023/08/06 13:48:58;;;;;;;2.90;2.67;;;;;;;;;;5023758;28;20570;-52
2023/08/06 13:51:24;;;;;;;3.33;3.03;;;;;;;;;;5026973;28;20772;-53
2023/08/06 13:53:52;;;;;;;3.10;2.70;;;;;;;;;;5022039;28;20202;-52
2023/08/06 13:56:18;;;;;;;2.60;2.40;;;;;;;;;;5022338;28;20221;-51
2023/08/06 13:58:44;;;;;;;2.13;2.03;;;;;;;;;;5012646;28;20186;-52
2023/08/06 14:01:11;;;;;;;2.50;2.30;;;;;;;;;;5024417;28;20210;-53
2023/08/06 14:03:37;;;;;;;2.33;2.13;;;;;;;;;;5021783;28;20186;-53
2023/08/06 14:06:04;;;;;;;2.87;2.43;;;;;;;;;;5024786;28;20760;-51
2023/08/06 14:08:30;;;;;;;2.20;2.00;;;;;;;;;;5008169;28;20189;-53
2023/08/06 14:10:57;;;;;;;2.60;2.40;;;;;;;;;;5028495;28;20396;-52
2023/08/06 14:13:23;;;;;;;3.63;2.50;;;;;;;;;;5022789;28;20189;-52
2023/08/06 14:15:49;;;;;;;3.03;2.60;;;;;;;;;;5018992;28;20193;-51
2023/08/06 14:18:16;;;;;;;4.37;2.30;;;;;;;;;;5005212;28;20265;-51
2023/08/06 14:20:43;;;;;;;2.37;2.17;;;;;;;;;;5019921;28;20269;-51
2023/08/06 14:23:09;;;;;;;2.90;2.17;;;;;;;;;;5025512;28;20182;-53
2023/08/06 14:25:36;;;;;;;3.77;2.53;;;;;;;;;;5018917;28;20272;-52
2023/08/06 14:28:02;;;;;;;3.90;2.20;;;;;;;;;;5007700;28;20537;-52
2023/08/06 14:30:29;;;;;;;2.20;2.00;;;;;;;;;;5023603;28;20305;-52
2023/08/06 14:32:56;;;;;;;2.60;2.40;;;;;;;;;;5001978;28;20245;-52
2023/08/06 14:35:22;;;;;;;4.83;2.27;;;;;;;;;;5016322;28;20236;-54
2023/08/06 14:37:48;;;;;;;2.50;2.30;;;;;;;;;;5022368;28;20217;-54
2023/08/06 14:40:14;;;;;;;2.63;2.43;;;;;;;;;;5021208;28;20182;-54